sensor_id;sensor_type;location;lat;lon;timestamp;P1;durP1;ratioP1;P2;durP2;ratioP2
64242;SDS011;50573;51.512;5.386;2023-03-04T00:02:55;30.60;;;4.80;;
64242;SDS011;50573;51.512;5.386;2023-03-04T00:13:00;26.98;;;5.03;;
64242;SDS011;50573;51.512;5.386;2023-03-04T00:23:03;15.63;;;3.90;;
64242;SDS011;50573;51.512;5.386;2023-03-04T00:33:07;39.53;;;5.78;;
64242;SDS011;50573;51.512;5.386;2023-03-04T00:43:10;20.60;;;3.37;;
64242;SDS011;50573;51.512;5.386;2023-03-04T00:53:15;26.40;;;5.03;;
64242;SDS011;50573;51.512;5.386;2023-03-04T01:03:18;22.92;;;3.95;;
64242;SDS011;50573;51.512;5.386;2023-03-04T01:13:24;21.43;;;4.87;;
64242;SDS011;50573;51.512;5.386;2023-03-04T01:23:27;19.67;;;5.43;;
64242;SDS011;50573;51.512;5.386;2023-03-04T01:33:31;27.95;;;5.68;;
64242;SDS011;50573;51.512;5.386;2023-03-04T01:43:34;42.93;;;6.33;;
64242;SDS011;50573;51.512;5.386;2023-03-04T01:53:40;15.87;;;2.90;;
64242;SDS011;50573;51.512;5.386;2023-03-04T02:03:43;27.48;;;3.47;;
64242;SDS011;50573;51.512;5.386;2023-03-04T02:13:48;31.15;;;4.15;;
64242;SDS011;50573;51.512;5.386;2023-03-04T02:23:54;18.83;;;3.30;;
64242;SDS011;50573;51.512;5.386;2023-03-04T02:34:09;26.95;;;3.90;;
64242;SDS011;50573;51.512;5.386;2023-03-04T02:44:14;26.65;;;3.83;;
64242;SDS011;50573;51.512;5.386;2023-03-04T02:54:21;24.08;;;3.35;;
64242;SDS011;50573;51.512;5.386;2023-03-04T03:04:25;19.20;;;3.03;;
64242;SDS011;50573;51.512;5.386;2023-03-04T03:24:36;27.10;;;3.33;;
64242;SDS011;50573;51.512;5.386;2023-03-04T03:34:41;24.23;;;4.13;;
64242;SDS011;50573;51.512;5.386;2023-03-04T03:44:44;21.10;;;3.47;;
64242;SDS011;50573;51.512;5.386;2023-03-04T03:54:48;21.58;;;3.53;;
64242;SDS011;50573;51.512;5.386;2023-03-04T04:04:51;25.27;;;4.27;;
64242;SDS011;50573;51.512;5.386;2023-03-04T04:14:55;16.65;;;2.70;;
64242;SDS011;50573;51.512;5.386;2023-03-04T04:24:59;28.80;;;3.47;;
64242;SDS011;50573;51.512;5.386;2023-03-04T04:35:03;17.15;;;3.38;;
64242;SDS011;50573;51.512;5.386;2023-03-04T04:45:07;33.50;;;3.90;;
64242;SDS011;50573;51.512;5.386;2023-03-04T04:55:12;22.63;;;3.08;;
64242;SDS011;50573;51.512;5.386;2023-03-04T05:05:15;24.20;;;3.10;;
64242;SDS011;50573;51.512;5.386;2023-03-04T05:15:20;17.90;;;3.22;;
64242;SDS011;50573;51.512;5.386;2023-03-04T05:25:23;20.57;;;3.63;;
64242;SDS011;50573;51.512;5.386;2023-03-04T05:35:27;26.95;;;3.80;;
64242;SDS011;50573;51.512;5.386;2023-03-04T05:45:30;22.00;;;3.37;;
64242;SDS011;50573;51.512;5.386;2023-03-04T05:55:35;19.98;;;3.70;;
64242;SDS011;50573;51.512;5.386;2023-03-04T06:05:38;12.03;;;1.67;;
64242;SDS011;50573;51.512;5.386;2023-03-04T06:15:42;19.52;;;3.05;;
64242;SDS011;50573;51.512;5.386;2023-03-04T06:25:45;13.87;;;2.83;;
64242;SDS011;50573;51.512;5.386;2023-03-04T06:35:52;21.17;;;3.22;;
64242;SDS011;50573;51.512;5.386;2023-03-04T06:45:55;11.43;;;2.08;;
64242;SDS011;50573;51.512;5.386;2023-03-04T06:56:00;13.07;;;2.95;;
64242;SDS011;50573;51.512;5.386;2023-03-04T07:06:03;14.77;;;3.27;;
64242;SDS011;50573;51.512;5.386;2023-03-04T07:16:08;18.65;;;3.53;;
64242;SDS011;50573;51.512;5.386;2023-03-04T07:26:13;14.73;;;3.33;;
64242;SDS011;50573;51.512;5.386;2023-03-04T07:36:17;17.33;;;4.03;;
64242;SDS011;50573;51.512;5.386;2023-03-04T07:56:26;22.17;;;4.80;;
64242;SDS011;50573;51.512;5.386;2023-03-04T08:06:31;14.48;;;3.63;;
64242;SDS011;50573;51.512;5.386;2023-03-04T08:16:36;18.42;;;3.70;;
64242;SDS011;50573;51.512;5.386;2023-03-04T08:26:40;22.02;;;4.45;;
64242;SDS011;50573;51.512;5.386;2023-03-04T08:36:46;18.80;;;3.30;;
64242;SDS011;50573;51.512;5.386;2023-03-04T08:46:56;13.82;;;4.13;;
64242;SDS011;50573;51.512;5.386;2023-03-04T08:57:06;13.98;;;3.38;;
64242;SDS011;50573;51.512;5.386;2023-03-04T09:07:14;14.30;;;3.22;;
64242;SDS011;50573;51.512;5.386;2023-03-04T09:17:24;11.73;;;2.85;;
64242;SDS011;50573;51.512;5.386;2023-03-04T09:27:30;13.15;;;3.13;;
64242;SDS011;50573;51.512;5.386;2023-03-04T09:37:41;8.73;;;2.17;;
64242;SDS011;50573;51.512;5.386;2023-03-04T09:47:48;7.88;;;2.03;;
64242;SDS011;50573;51.512;5.386;2023-03-04T09:57:57;4.32;;;1.60;;
64242;SDS011;50573;51.512;5.386;2023-03-04T10:08:06;8.40;;;2.05;;
64242;SDS011;50573;51.512;5.386;2023-03-04T10:18:35;11.05;;;2.92;;
64242;SDS011;50573;51.512;5.386;2023-03-04T10:28:40;14.93;;;2.85;;
64242;SDS011;50573;51.512;5.386;2023-03-04T10:38:46;11.95;;;2.20;;
64242;SDS011;50573;51.512;5.386;2023-03-04T10:48:49;10.07;;;1.90;;
64242;SDS011;50573;51.512;5.386;2023-03-04T10:58:53;6.50;;;2.25;;
64242;SDS011;50573;51.512;5.386;2023-03-04T11:09:32;10.90;;;2.25;;
64242;SDS011;50573;51.512;5.386;2023-03-04T11:19:36;5.53;;;2.23;;
64242;SDS011;50573;51.512;5.386;2023-03-04T11:29:42;11.48;;;2.80;;
64242;SDS011;50573;51.512;5.386;2023-03-04T11:39:51;7.07;;;2.63;;
64242;SDS011;50573;51.512;5.386;2023-03-04T11:50:10;6.28;;;2.38;;
64242;SDS011;50573;51.512;5.386;2023-03-04T12:00:41;4.38;;;1.80;;
64242;SDS011;50573;51.512;5.386;2023-03-04T12:10:53;5.60;;;1.70;;
64242;SDS011;50573;51.512;5.386;2023-03-04T12:21:15;7.05;;;2.15;;
64242;SDS011;50573;51.512;5.386;2023-03-04T12:31:35;3.33;;;1.95;;
64242;SDS011;50573;51.512;5.386;2023-03-04T12:41:42;5.90;;;2.67;;
64242;SDS011;50573;51.512;5.386;2023-03-04T12:51:56;3.78;;;2.05;;
64242;SDS011;50573;51.512;5.386;2023-03-04T13:12:49;4.78;;;2.65;;
64242;SDS011;50573;51.512;5.386;2023-03-04T13:22:54;7.22;;;3.15;;
64242;SDS011;50573;51.512;5.386;2023-03-04T13:43:48;10.25;;;2.65;;
64242;SDS011;50573;51.512;5.386;2023-03-04T14:14:17;6.37;;;3.23;;
64242;SDS011;50573;51.512;5.386;2023-03-04T14:24:21;7.10;;;2.47;;
64242;SDS011;50573;51.512;5.386;2023-03-04T14:34:27;5.93;;;2.05;;
64242;SDS011;50573;51.512;5.386;2023-03-04T14:44:33;5.13;;;1.48;;
64242;SDS011;50573;51.512;5.386;2023-03-04T14:54:40;14.65;;;1.90;;
64242;SDS011;50573;51.512;5.386;2023-03-04T15:04:43;7.60;;;2.13;;
64242;SDS011;50573;51.512;5.386;2023-03-04T15:14:49;7.18;;;2.30;;
64242;SDS011;50573;51.512;5.386;2023-03-04T15:24:54;14.80;;;3.10;;
64242;SDS011;50573;51.512;5.386;2023-03-04T15:34:59;23.70;;;4.53;;
64242;SDS011;50573;51.512;5.386;2023-03-04T15:45:04;21.85;;;3.97;;
64242;SDS011;50573;51.512;5.386;2023-03-04T15:55:23;22.33;;;3.92;;
64242;SDS011;50573;51.512;5.386;2023-03-04T16:05:27;19.83;;;3.65;;
64242;SDS011;50573;51.512;5.386;2023-03-04T16:15:32;22.08;;;3.03;;
64242;SDS011;50573;51.512;5.386;2023-03-04T16:25:35;15.27;;;3.20;;
64242;SDS011;50573;51.512;5.386;2023-03-04T16:35:39;18.23;;;3.45;;
64242;SDS011;50573;51.512;5.386;2023-03-04T16:45:43;13.48;;;3.10;;
64242;SDS011;50573;51.512;5.386;2023-03-04T16:55:48;13.95;;;3.13;;
64242;SDS011;50573;51.512;5.386;2023-03-04T17:05:51;14.70;;;3.23;;
64242;SDS011;50573;51.512;5.386;2023-03-04T17:15:55;11.55;;;2.75;;
64242;SDS011;50573;51.512;5.386;2023-03-04T17:26:02;15.20;;;2.90;;
64242;SDS011;50573;51.512;5.386;2023-03-04T17:36:07;12.30;;;2.55;;
64242;SDS011;50573;51.512;5.386;2023-03-04T17:46:13;10.70;;;2.70;;
64242;SDS011;50573;51.512;5.386;2023-03-04T17:56:18;15.15;;;2.83;;
64242;SDS011;50573;51.512;5.386;2023-03-04T18:06:22;6.00;;;1.47;;
64242;SDS011;50573;51.512;5.386;2023-03-04T18:16:27;8.80;;;2.38;;
64242;SDS011;50573;51.512;5.386;2023-03-04T18:26:30;11.75;;;2.40;;
64242;SDS011;50573;51.512;5.386;2023-03-04T18:36:35;8.68;;;2.40;;
64242;SDS011;50573;51.512;5.386;2023-03-04T18:46:39;12.10;;;2.47;;
64242;SDS011;50573;51.512;5.386;2023-03-04T18:56:46;9.43;;;1.98;;
64242;SDS011;50573;51.512;5.386;2023-03-04T19:06:52;7.18;;;2.08;;
64242;SDS011;50573;51.512;5.386;2023-03-04T19:16:57;10.93;;;2.15;;
64242;SDS011;50573;51.512;5.386;2023-03-04T19:27:00;12.70;;;3.63;;
64242;SDS011;50573;51.512;5.386;2023-03-04T19:37:07;11.68;;;3.42;;
64242;SDS011;50573;51.512;5.386;2023-03-04T19:47:10;8.70;;;2.33;;
64242;SDS011;50573;51.512;5.386;2023-03-04T19:57:15;16.60;;;5.25;;
64242;SDS011;50573;51.512;5.386;2023-03-04T20:07:18;20.03;;;6.97;;
64242;SDS011;50573;51.512;5.386;2023-03-04T20:17:22;13.88;;;4.60;;
64242;SDS011;50573;51.512;5.386;2023-03-04T20:27:25;11.27;;;3.80;;
64242;SDS011;50573;51.512;5.386;2023-03-04T20:37:29;11.18;;;3.63;;
64242;SDS011;50573;51.512;5.386;2023-03-04T20:47:32;12.07;;;4.60;;
64242;SDS011;50573;51.512;5.386;2023-03-04T20:57:40;13.10;;;4.22;;
64242;SDS011;50573;51.512;5.386;2023-03-04T21:07:43;14.33;;;4.33;;
64242;SDS011;50573;51.512;5.386;2023-03-04T21:17:47;19.15;;;4.32;;
64242;SDS011;50573;51.512;5.386;2023-03-04T21:27:50;12.70;;;3.73;;
64242;SDS011;50573;51.512;5.386;2023-03-04T21:37:55;20.48;;;4.22;;
64242;SDS011;50573;51.512;5.386;2023-03-04T21:47:58;22.63;;;3.80;;
64242;SDS011;50573;51.512;5.386;2023-03-04T21:58:02;15.40;;;3.80;;
64242;SDS011;50573;51.512;5.386;2023-03-04T22:08:05;11.37;;;3.33;;
64242;SDS011;50573;51.512;5.386;2023-03-04T22:18:10;11.68;;;3.75;;
64242;SDS011;50573;51.512;5.386;2023-03-04T22:28:14;12.90;;;3.85;;
64242;SDS011;50573;51.512;5.386;2023-03-04T22:38:19;15.57;;;3.72;;
64242;SDS011;50573;51.512;5.386;2023-03-04T22:48:23;12.93;;;3.47;;
64242;SDS011;50573;51.512;5.386;2023-03-04T22:58:27;16.20;;;3.97;;
64242;SDS011;50573;51.512;5.386;2023-03-04T23:08:30;17.67;;;4.50;;
64242;SDS011;50573;51.512;5.386;2023-03-04T23:18:36;15.93;;;3.95;;
64242;SDS011;50573;51.512;5.386;2023-03-04T23:28:39;12.35;;;3.20;;
64242;SDS011;50573;51.512;5.386;2023-03-04T23:38:44;18.00;;;4.72;;
64242;SDS011;50573;51.512;5.386;2023-03-04T23:48:49;21.25;;;3.78;;
64242;SDS011;50573;51.512;5.386;2023-03-04T23:58:53;17.30;;;3.28;;
